Time;durP1;ratioP1;P1;durP2;ratioP2;P2;SDS_P1;SDS_P2;PMS_P1;PMS_P2;Temp;Humidity;BMP_temperature;BMP_pressure;BME280_temperature;BME280_humidity;BME280_pressure;Samples;Min_cycle;Max_cycle;Signal;HPM_P1;HPM_P2
2020/12/03 00:00:38;;;;;;;48.23;28.83;;;0.80;99.90;;;;;;5116467;28;20545;-83
2020/12/03 00:03:10;;;;;;;49.30;28.40;;;0.80;99.90;;;;;;5098190;28;20422;-84
2020/12/03 00:05:35;;;;;;;57.40;32.50;;;0.90;99.90;;;;;;5115997;28;20781;-84
2020/12/03 00:08:02;;;;;;;55.67;30.03;;;0.90;99.90;;;;;;5116331;28;20421;-83
2020/12/03 00:10:29;;;;;;;51.40;29.93;;;0.90;99.90;;;;;;5116382;28;20259;-84
2020/12/03 00:13:10;;;;;;;51.80;32.07;;;0.80;99.90;;;;;;5116241;28;20892;-83
2020/12/03 00:15:36;;;;;;;55.17;30.13;;;0.80;99.90;;;;;;5116239;28;20516;-83
2020/12/03 00:18:02;;;;;;;55.67;31.03;;;0.90;99.90;;;;;;5098029;28;20925;-84
2020/12/03 00:20:28;;;;;;;60.60;34.80;;;0.90;99.90;;;;;;5115676;28;20207;-83
2020/12/03 00:22:53;;;;;;;52.70;29.67;;;1.00;99.90;;;;;;5116225;28;20257;-83
2020/12/03 00:25:19;;;;;;;52.73;29.87;;;1.00;99.90;;;;;;5116000;28;21039;-84
2020/12/03 00:27:53;;;;;;;54.63;33.77;;;1.00;99.90;;;;;;5116022;28;20165;-83
2020/12/03 00:30:19;;;;;;;58.03;31.33;;;1.10;99.90;;;;;;5116051;28;20164;-83
2020/12/03 00:32:46;;;;;;;58.97;33.20;;;1.10;99.90;;;;;;5115811;28;20417;-83
2020/12/03 00:35:13;;;;;;;60.33;32.40;;;1.20;99.90;;;;;;5115830;28;20422;-84
2020/12/03 00:37:40;;;;;;;54.83;32.60;;;1.20;99.90;;;;;;5115429;28;20415;-84
2020/12/03 00:40:06;;;;;;;52.80;32.37;;;1.20;99.90;;;;;;5115828;28;20412;-83
2020/12/03 00:42:32;;;;;;;60.83;32.07;;;1.20;99.90;;;;;;5115588;28;20443;-83
2020/12/03 00:44:57;;;;;;;53.67;33.17;;;1.10;99.90;;;;;;5115710;28;20165;-84
2020/12/03 00:47:23;;;;;;;53.87;32.33;;;1.20;99.90;;;;;;5114276;28;20291;-83
2020/12/03 00:49:48;;;;;;;56.60;30.83;;;1.20;99.90;;;;;;5114696;28;20237;-84
2020/12/03 00:52:14;;;;;;;50.90;30.93;;;1.20;99.90;;;;;;5115243;28;20184;-84
2020/12/03 00:54:42;;;;;;;58.47;33.50;;;1.30;99.90;;;;;;5122258;27;20182;-83
2020/12/03 00:57:07;;;;;;;55.27;31.43;;;1.30;99.90;;;;;;5136026;27;20410;-84
2020/12/03 00:59:39;;;;;;;54.20;31.80;;;1.20;99.90;;;;;;5136117;27;20408;-84
2020/12/03 01:02:08;;;;;;;52.77;33.73;;;1.20;99.90;;;;;;5117507;27;20178;-84
2020/12/03 01:04:35;;;;;;;53.67;32.03;;;1.20;99.90;;;;;;5135170;27;20418;-83
2020/12/03 01:07:01;;;;;;;55.17;30.87;;;1.10;99.90;;;;;;5115616;27;20486;-84
2020/12/03 01:09:26;;;;;;;56.53;29.07;;;1.10;99.90;;;;;;5134792;27;20434;-84
2020/12/03 01:11:52;;;;;;;38.27;23.27;;;1.10;99.90;;;;;;5134451;27;20816;-84
2020/12/03 01:14:17;;;;;;;54.43;32.20;;;1.10;99.90;;;;;;5134519;27;20207;-84
2020/12/03 01:16:44;;;;;;;54.37;28.90;;;1.00;99.90;;;;;;5134528;27;20170;-84
2020/12/03 01:19:10;;;;;;;57.23;31.83;;;1.00;99.90;;;;;;5134352;27;20166;-84
2020/12/03 01:21:36;;;;;;;49.10;25.93;;;0.90;99.90;;;;;;5115365;27;20463;-84
2020/12/03 01:24:01;;;;;;;56.00;31.13;;;0.80;99.90;;;;;;5134355;27;20172;-84
2020/12/03 01:26:27;;;;;;;57.87;30.90;;;0.70;99.90;;;;;;5134237;27;20211;-84
2020/12/03 01:28:52;;;;;;;53.77;28.47;;;0.60;99.90;;;;;;5115693;27;20176;-83
2020/12/03 01:31:18;;;;;;;56.80;32.50;;;0.60;99.90;;;;;;5133603;27;20175;-81
2020/12/03 01:33:44;;;;;;;50.37;29.27;;;0.60;99.90;;;;;;5133946;27;20558;-83
2020/12/03 01:36:12;;;;;;;48.77;27.80;;;0.70;99.90;;;;;;5131184;27;20165;-83
2020/12/03 01:38:37;;;;;;;58.07;31.93;;;0.70;99.90;;;;;;5134044;27;20582;-82
2020/12/03 01:41:03;;;;;;;53.97;29.40;;;0.70;99.90;;;;;;5133981;27;20421;-83
2020/12/03 01:43:29;;;;;;;59.47;36.47;;;0.80;99.90;;;;;;5133945;27;20227;-83
2020/12/03 01:46:01;;;;;;;45.17;27.60;;;0.80;99.90;;;;;;5115370;27;20545;-84
2020/12/03 01:48:40;;;;;;;47.17;28.20;;;0.80;99.90;;;;;;5132012;27;20515;-83
2020/12/03 01:51:25;;;;;;;47.77;30.53;;;0.80;99.90;;;;;;5112798;27;20935;-84
2020/12/03 01:53:56;;;;;;;55.83;31.03;;;0.90;99.90;;;;;;5132253;27;20471;-83
2020/12/03 01:56:28;;;;;;;62.47;33.73;;;0.80;99.90;;;;;;5133586;27;20410;-83
2020/12/03 01:58:55;;;;;;;56.10;32.43;;;0.80;99.90;;;;;;5133201;27;20433;-83
2020/12/03 02:01:21;;;;;;;49.43;29.37;;;0.80;99.90;;;;;;5133532;27;20401;-82
2020/12/03 02:03:48;;;;;;;55.27;33.27;;;0.80;99.90;;;;;;5133699;27;20775;-83
2020/12/03 02:06:22;;;;;;;51.37;32.00;;;0.90;99.90;;;;;;5134066;27;20207;-83
2020/12/03 02:08:48;;;;;;;59.47;32.33;;;0.80;99.90;;;;;;5134644;27;20830;-83
2020/12/03 02:11:15;;;;;;;52.97;30.97;;;0.80;99.90;;;;;;5134635;27;20413;-83
2020/12/03 02:14:20;;;;;;;53.33;29.53;;;0.90;99.90;;;;;;5116328;27;20421;-83
2020/12/03 02:16:46;;;;;;;50.67;28.60;;;1.00;99.90;;;;;;5129523;27;20424;-82
2020/12/03 02:19:27;;;;;;;51.80;29.90;;;1.00;99.90;;;;;;5134361;27;20397;-82
2020/12/03 02:21:59;;;;;;;51.33;30.87;;;1.00;99.90;;;;;;5133945;27;20227;-82
2020/12/03 02:24:31;;;;;;;52.60;30.10;;;1.00;99.90;;;;;;5134444;27;20409;-82
2020/12/03 02:26:58;;;;;;;54.30;29.70;;;1.10;99.90;;;;;;5134309;27;20629;-82
2020/12/03 02:29:23;;;;;;;46.77;26.80;;;1.10;99.90;;;;;;5115797;27;20418;-82
2020/12/03 02:31:49;;;;;;;61.13;33.87;;;1.00;99.90;;;;;;5134359;27;20509;-82
2020/12/03 02:34:16;;;;;;;48.40;30.27;;;1.00;99.90;;;;;;5134388;27;20254;-82
2020/12/03 02:36:41;;;;;;;53.83;32.67;;;1.00;99.90;;;;;;5133890;27;20155;-83
2020/12/03 02:39:08;;;;;;;44.40;29.10;;;1.00;99.90;;;;;;5134270;27;20398;-82
2020/12/03 02:41:34;;;;;;;55.73;32.70;;;1.00;99.90;;;;;;5133976;27;20162;-82
2020/12/03 02:44:00;;;;;;;54.50;29.97;;;1.00;99.90;;;;;;5134116;27;20413;-83
2020/12/03 02:46:26;;;;;;;54.03;31.70;;;1.00;99.90;;;;;;5134048;27;20460;-82
2020/12/03 02:48:52;;;;;;;52.17;31.50;;;1.00;99.90;;;;;;5134092;27;20456;-83
2020/12/03 02:51:17;;;;;;;52.83;31.40;;;1.10;99.90;;;;;;5133708;27;20172;-83
2020/12/03 02:53:43;;;;;;;55.70;30.77;;;1.10;99.90;;;;;;5134026;27;20171;-83
2020/12/03 02:56:11;;;;;;;50.50;28.80;;;1.10;99.90;;;;;;5115463;27;20183;-83
2020/12/03 02:58:37;;;;;;;44.67;28.17;;;1.10;99.90;;;;;;5133864;27;20272;-83
2020/12/03 03:01:03;;;;;;;53.67;31.43;;;1.10;99.90;;;;;;5133918;27;20417;-82
2020/12/03 03:03:28;;;;;;;53.13;31.90;;;1.10;99.90;;;;;;5133933;27;20194;-83
2020/12/03 03:05:54;;;;;;;51.50;29.67;;;1.10;99.90;;;;;;5122414;27;20210;-82
2020/12/03 03:08:19;;;;;;;52.47;31.40;;;1.10;99.90;;;;;;5113259;28;20205;-82
2020/12/03 03:10:45;;;;;;;49.73;29.13;;;1.10;99.90;;;;;;5112645;28;20167;-83
2020/12/03 03:13:11;;;;;;;58.00;31.97;;;1.10;99.90;;;;;;5113187;28;20535;-83
2020/12/03 03:15:36;;;;;;;44.37;25.60;;;1.10;99.90;;;;;;5113284;28;20172;-82
2020/12/03 03:18:02;;;;;;;50.20;30.10;;;1.10;99.90;;;;;;5113287;28;20171;-83
2020/12/03 03:20:27;;;;;;;46.07;27.03;;;1.10;99.90;;;;;;5112590;28;20615;-82
2020/12/03 03:22:53;;;;;;;48.10;29.07;;;1.10;99.90;;;;;;5113177;28;20181;-83
2020/12/03 03:25:18;;;;;;;47.47;26.87;;;1.00;99.90;;;;;;5094836;28;20178;-82
2020/12/03 03:27:44;;;;;;;54.17;31.87;;;1.00;99.90;;;;;;5113050;28;20211;-83
2020/12/03 03:30:10;;;;;;;57.57;29.17;;;1.00;99.90;;;;;;5113107;28;20164;-82
2020/12/03 03:32:35;;;;;;;53.20;28.57;;;1.00;99.90;;;;;;5113053;28;20518;-83
2020/12/03 03:35:02;;;;;;;47.33;26.00;;;1.00;99.90;;;;;;5112692;28;20170;-83
2020/12/03 03:37:28;;;;;;;48.17;30.87;;;1.10;99.90;;;;;;5112950;28;20267;-83
2020/12/03 03:39:53;;;;;;;52.90;25.70;;;1.00;99.90;;;;;;5113037;28;20489;-82
2020/12/03 03:42:19;;;;;;;53.47;33.17;;;1.10;99.90;;;;;;5112999;28;20172;-82
2020/12/03 03:44:45;;;;;;;55.73;30.27;;;1.10;99.90;;;;;;5112930;28;20182;-82
2020/12/03 03:47:10;;;;;;;49.47;29.23;;;1.10;99.90;;;;;;5112888;28;20214;-83
2020/12/03 03:49:36;;;;;;;47.50;28.10;;;1.10;99.90;;;;;;5112962;28;20641;-82
2020/12/03 03:52:02;;;;;;;49.87;28.10;;;1.10;99.90;;;;;;5112554;28;20171;-82
2020/12/03 03:54:28;;;;;;;51.00;28.00;;;1.10;99.90;;;;;;5112902;28;20178;-82
2020/12/03 03:56:53;;;;;;;41.67;25.07;;;1.10;99.90;;;;;;5112690;28;20411;-82
2020/12/03 03:59:19;;;;;;;48.70;30.10;;;1.00;99.90;;;;;;5112872;28;20172;-82
2020/12/03 04:01:44;;;;;;;42.70;26.37;;;1.00;99.90;;;;;;5121557;28;20191;-83
2020/12/03 04:04:10;;;;;;;49.70;27.80;;;1.00;99.90;;;;;;5114970;28;20174;-82
2020/12/03 04:06:36;;;;;;;52.00;30.20;;;1.00;99.90;;;;;;5118814;28;20217;-82
2020/12/03 04:09:02;;;;;;;53.13;30.60;;;1.00;99.90;;;;;;5112742;28;20172;-82
2020/12/03 04:11:28;;;;;;;50.97;29.07;;;1.00;99.90;;;;;;5112664;28;20254;-81
2020/12/03 04:13:53;;;;;;;53.80;29.83;;;1.10;99.90;;;;;;5112680;28;20515;-83
2020/12/03 04:16:19;;;;;;;38.17;22.37;;;1.10;99.90;;;;;;5130043;28;20172;-82
2020/12/03 04:18:44;;;;;;;46.90;27.17;;;1.10;99.90;;;;;;5133191;28;20172;-82
2020/12/03 04:21:10;;;;;;;39.77;21.67;;;1.10;99.90;;;;;;5134609;27;20228;-82
2020/12/03 04:23:36;;;;;;;45.23;28.23;;;1.00;99.90;;;;;;5118456;27;20184;-83
2020/12/03 04:26:02;;;;;;;40.20;24.67;;;1.10;99.90;;;;;;5136801;27;20256;-82
2020/12/03 04:28:28;;;;;;;47.10;26.77;;;1.10;99.90;;;;;;5136729;27;20174;-82
2020/12/03 04:30:55;;;;;;;51.33;29.67;;;1.10;99.90;;;;;;5135519;27;20462;-82
2020/12/03 04:33:21;;;;;;;43.60;26.70;;;1.10;99.90;;;;;;5116113;28;20420;-82
2020/12/03 04:35:47;;;;;;;35.60;22.13;;;1.10;99.90;;;;;;5115732;28;20402;-82
2020/12/03 04:38:14;;;;;;;43.20;27.90;;;1.10;99.90;;;;;;5116002;28;20420;-82
2020/12/03 04:40:42;;;;;;;47.70;27.70;;;1.10;99.90;;;;;;5115929;28;20503;-82
2020/12/03 04:43:30;;;;;;;44.93;26.83;;;1.10;99.90;;;;;;5115904;28;20512;-82
2020/12/03 04:46:39;;;;;;;51.40;29.30;;;1.20;99.90;;;;;;5115713;28;20454;-81
2020/12/03 04:49:33;;;;;;;47.70;25.83;;;1.10;99.90;;;;;;5115912;28;20840;-82
2020/12/03 04:52:23;;;;;;;47.80;26.13;;;1.10;99.90;;;;;;5114681;28;20423;-83
2020/12/03 04:55:26;;;;;;;40.80;24.73;;;1.00;99.90;;;;;;5115647;28;20459;-82
2020/12/03 04:58:06;;;;;;;51.47;27.47;;;1.00;99.90;;;;;;5115572;28;20414;-82
2020/12/03 05:00:48;;;;;;;45.23;28.10;;;1.00;99.90;;;;;;5124609;27;20788;-82
2020/12/03 05:03:40;;;;;;;40.67;21.87;;;1.00;99.90;;;;;;5115555;28;20406;-81
2020/12/03 05:06:35;;;;;;;52.03;31.20;;;1.00;99.90;;;;;;5091891;28;20502;-82
2020/12/03 05:09:04;;;;;;;47.67;25.27;;;0.90;99.90;;;;;;5097169;28;20523;-81
2020/12/03 05:11:44;;;;;;;46.93;27.80;;;0.90;99.90;;;;;;5115327;28;20424;-84
2020/12/03 05:14:36;;;;;;;47.17;27.90;;;1.00;99.90;;;;;;5115314;28;20410;-84
2020/12/03 05:17:24;;;;;;;47.57;24.47;;;1.00;99.90;;;;;;5115242;28;20539;-83
2020/12/03 05:20:21;;;;;;;39.07;26.27;;;0.90;99.90;;;;;;5114900;28;20418;-85
2020/12/03 05:22:55;;;;;;;50.20;25.57;;;1.00;99.90;;;;;;5115151;28;20457;-84
2020/12/03 05:25:22;;;;;;;43.30;26.33;;;1.00;99.90;;;;;;5096916;28;20422;-84
2020/12/03 05:27:51;;;;;;;39.93;25.20;;;1.00;99.90;;;;;;5114931;28;20470;-84
2020/12/03 05:30:17;;;;;;;39.33;23.03;;;1.00;99.90;;;;;;5114907;28;20757;-84
2020/12/03 05:32:43;;;;;;;49.10;27.67;;;1.00;99.90;;;;;;5114275;28;20429;-84
2020/12/03 05:35:10;;;;;;;49.13;28.00;;;1.00;99.90;;;;;;5114575;28;20164;-83
2020/12/03 05:37:38;;;;;;;55.40;30.00;;;1.00;99.90;;;;;;5114842;28;20642;-84
2020/12/03 05:40:05;;;;;;;47.00;28.30;;;1.10;99.90;;;;;;5114841;28;20415;-84
2020/12/03 05:42:36;;;;;;;46.80;28.53;;;1.10;99.90;;;;;;5114782;28;20903;-84
2020/12/03 05:45:18;;;;;;;36.33;22.23;;;1.10;99.90;;;;;;5096449;28;20450;-83
2020/12/03 05:47:48;;;;;;;46.97;28.27;;;1.10;99.90;;;;;;5114647;28;20471;-83
2020/12/03 05:50:29;;;;;;;46.67;25.43;;;1.10;99.90;;;;;;5114234;28;20448;-84
2020/12/03 05:53:20;;;;;;;46.43;27.20;;;1.10;99.90;;;;;;5096393;28;20469;-84
2020/12/03 05:55:47;;;;;;;42.50;23.47;;;1.10;99.90;;;;;;5113731;28;20433;-82
2020/12/03 05:58:17;;;;;;;33.33;21.50;;;1.10;99.90;;;;;;5114473;28;20975;-83
2020/12/03 06:00:43;;;;;;;47.10;27.43;;;1.10;99.90;;;;;;5114360;28;20463;-84
2020/12/03 06:03:31;;;;;;;46.73;25.37;;;1.10;99.90;;;;;;5114260;28;20463;-83
2020/12/03 06:06:11;;;;;;;32.53;20.23;;;1.10;99.90;;;;;;5095701;28;20468;-83
2020/12/03 06:08:47;;;;;;;32.07;16.13;;;1.10;99.90;;;;;;5095916;28;20430;-83
2020/12/03 06:11:45;;;;;;;42.17;24.37;;;1.10;99.90;;;;;;5114230;28;20403;-83
2020/12/03 06:14:35;;;;;;;44.97;25.30;;;1.00;99.90;;;;;;5114036;28;20501;-83
2020/12/03 06:17:26;;;;;;;46.47;22.97;;;1.00;99.90;;;;;;5114074;28;20560;-83
2020/12/03 06:20:00;;;;;;;47.67;27.70;;;1.10;99.90;;;;;;5113707;28;20408;-83
2020/12/03 06:22:44;;;;;;;37.10;21.90;;;1.10;99.90;;;;;;5113719;28;20813;-84
2020/12/03 06:25:27;;;;;;;43.23;26.17;;;1.10;99.90;;;;;;5114030;28;20422;-82
2020/12/03 06:28:20;;;;;;;50.27;25.37;;;1.10;99.90;;;;;;5113860;28;20470;-83
2020/12/03 06:31:12;;;;;;;40.73;22.77;;;1.10;99.90;;;;;;5114128;27;20490;-84
2020/12/03 06:33:47;;;;;;;35.23;23.00;;;1.00;99.90;;;;;;5071627;28;20784;-83
2020/12/03 06:36:27;;;;;;;41.43;23.67;;;1.10;99.90;;;;;;5133169;27;20767;-83
2020/12/03 06:39:24;;;;;;;44.63;26.47;;;1.10;99.90;;;;;;5115900;27;20945;-84
2020/12/03 06:42:17;;;;;;;43.30;24.90;;;1.10;99.90;;;;;;5128041;27;20471;-84
2020/12/03 06:44:52;;;;;;;33.33;21.60;;;1.20;99.90;;;;;;5112621;28;20415;-84
2020/12/03 06:47:42;;;;;;;40.70;25.00;;;1.20;99.90;;;;;;5113580;28;20895;-84
2020/12/03 06:50:26;;;;;;;38.17;22.70;;;1.20;99.90;;;;;;5113200;28;20469;-84
2020/12/03 06:52:58;;;;;;;42.20;23.83;;;1.20;99.90;;;;;;5113408;28;20407;-83
2020/12/03 06:56:01;;;;;;;39.33;22.53;;;1.20;99.90;;;;;;5113466;28;20406;-82
2020/12/03 06:58:57;;;;;;;44.37;26.07;;;1.20;99.90;;;;;;5113005;28;20409;-84
2020/12/03 07:01:55;;;;;;;47.73;26.30;;;1.20;99.90;;;;;;5125929;27;20450;-83
2020/12/03 07:04:38;;;;;;;39.40;25.10;;;1.20;99.90;;;;;;5133571;27;20401;-82
2020/12/03 07:07:41;;;;;;;40.33;23.47;;;1.10;99.90;;;;;;5133703;27;20469;-83
2020/12/03 07:10:22;;;;;;;42.87;26.10;;;1.10;99.90;;;;;;5133774;28;20750;-84
2020/12/03 07:13:26;;;;;;;40.40;22.03;;;1.10;99.90;;;;;;5133830;28;20478;-83
2020/12/03 07:16:10;;;;;;;45.00;24.00;;;1.10;99.90;;;;;;5133799;28;20413;-82
2020/12/03 07:19:09;;;;;;;35.13;20.87;;;1.10;99.90;;;;;;5115224;28;20419;-83
2020/12/03 07:22:14;;;;;;;35.30;22.50;;;1.10;99.90;;;;;;5133135;28;20548;-83
2020/12/03 07:24:47;;;;;;;31.63;20.97;;;1.10;99.90;;;;;;5132822;28;20506;-83
2020/12/03 07:27:44;;;;;;;40.57;22.57;;;1.10;99.90;;;;;;5133446;28;20582;-84
2020/12/03 07:30:12;;;;;;;46.90;26.10;;;1.10;99.90;;;;;;5080151;28;20414;-83
2020/12/03 07:33:02;;;;;;;33.87;19.87;;;1.10;99.90;;;;;;5133473;28;20401;-83
2020/12/03 07:35:48;;;;;;;30.30;19.57;;;1.10;99.90;;;;;;5133161;28;20402;-84
2020/12/03 07:38:30;;;;;;;43.17;24.43;;;1.10;99.90;;;;;;5133392;28;20421;-84
2020/12/03 07:40:57;;;;;;;38.97;24.13;;;1.20;99.90;;;;;;5133294;28;20412;-84
2020/12/03 07:43:36;;;;;;;42.17;24.43;;;1.20;99.90;;;;;;5133410;28;20437;-84
2020/12/03 07:46:27;;;;;;;45.33;22.17;;;1.20;99.90;;;;;;5133275;28;20965;-84
2020/12/03 07:48:53;;;;;;;41.63;25.60;;;1.10;99.90;;;;;;5133280;28;20757;-84
2020/12/03 07:51:19;;;;;;;41.43;26.43;;;1.10;99.90;;;;;;5132495;28;20407;-84
2020/12/03 07:53:46;;;;;;;45.90;25.17;;;1.10;99.90;;;;;;5132729;28;20471;-84
2020/12/03 07:56:24;;;;;;;38.50;22.47;;;1.20;99.90;;;;;;5134874;27;20183;-85
2020/12/03 07:58:50;;;;;;;47.57;27.13;;;1.20;99.90;;;;;;5136664;27;20507;-82
2020/12/03 08:01:28;;;;;;;39.00;22.97;;;1.20;99.90;;;;;;5136486;27;20433;-83
2020/12/03 08:03:58;;;;;;;48.57;27.70;;;1.20;99.90;;;;;;5118004;27;20942;-83
2020/12/03 08:06:37;;;;;;;50.37;26.97;;;1.20;99.90;;;;;;5135915;27;20471;-83
2020/12/03 08:09:03;;;;;;;51.60;25.73;;;1.20;99.90;;;;;;5136421;27;20782;-82
2020/12/03 08:11:38;;;;;;;45.67;23.43;;;1.20;99.90;;;;;;5136313;27;20478;-81
2020/12/03 08:14:22;;;;;;;42.20;24.20;;;1.20;99.90;;;;;;5136289;27;20159;-83
2020/12/03 08:16:47;;;;;;;51.00;26.10;;;1.20;99.90;;;;;;5136355;27;20410;-83
2020/12/03 08:19:20;;;;;;;39.37;25.03;;;1.20;99.90;;;;;;5135874;27;20420;-83
2020/12/03 08:21:46;;;;;;;44.10;24.53;;;1.20;99.90;;;;;;5130157;27;20692;-82
2020/12/03 08:24:23;;;;;;;45.63;25.00;;;1.20;99.90;;;;;;5097347;28;20457;-82
2020/12/03 08:26:54;;;;;;;42.80;23.43;;;1.30;99.90;;;;;;5115404;28;20259;-83
2020/12/03 08:29:43;;;;;;;32.50;19.70;;;1.30;99.90;;;;;;5097195;28;20419;-82
2020/12/03 08:32:09;;;;;;;35.17;20.47;;;1.30;99.90;;;;;;5104887;28;20431;-82
2020/12/03 08:34:35;;;;;;;43.43;24.93;;;1.20;99.90;;;;;;5115672;28;20494;-82
2020/12/03 08:37:08;;;;;;;43.97;28.37;;;1.20;99.90;;;;;;5123146;27;20181;-82
2020/12/03 08:39:33;;;;;;;52.20;29.43;;;1.20;99.90;;;;;;5132895;27;20753;-83
2020/12/03 08:42:00;;;;;;;60.83;30.80;;;1.20;99.90;;;;;;5135235;27;20501;-83
2020/12/03 08:44:28;;;;;;;44.87;24.40;;;1.20;99.90;;;;;;5135313;27;20521;-82
2020/12/03 08:46:57;;;;;;;52.97;27.43;;;1.20;99.90;;;;;;5132797;27;20469;-82
2020/12/03 08:49:23;;;;;;;37.47;20.03;;;1.20;99.90;;;;;;5135367;27;20424;-82
2020/12/03 08:51:59;;;;;;;43.63;25.20;;;1.20;99.90;;;;;;5136255;27;20501;-82
2020/12/03 08:54:30;;;;;;;46.30;24.80;;;1.20;99.90;;;;;;5136100;27;20417;-83
2020/12/03 08:56:58;;;;;;;47.60;25.20;;;1.30;99.90;;;;;;5136215;27;20402;-82
2020/12/03 08:59:33;;;;;;;48.50;26.60;;;1.30;99.90;;;;;;5136308;27;20433;-82
2020/12/03 09:02:10;;;;;;;42.17;24.23;;;1.30;99.90;;;;;;5135392;27;20426;-82
2020/12/03 09:04:38;;;;;;;45.63;23.97;;;1.30;99.90;;;;;;5129315;27;20423;-82
2020/12/03 09:07:07;;;;;;;45.03;24.47;;;1.40;99.90;;;;;;5134961;27;20818;-83
2020/12/03 09:09:36;;;;;;;38.63;23.80;;;1.40;99.90;;;;;;5117614;27;20405;-82
2020/12/03 09:12:03;;;;;;;42.93;25.03;;;1.30;99.90;;;;;;5135913;27;20436;-82
2020/12/03 09:14:34;;;;;;;40.97;23.70;;;1.30;99.90;;;;;;5135928;27;20496;-82
2020/12/03 09:17:06;;;;;;;42.20;26.07;;;1.30;99.90;;;;;;5117400;27;20424;-83
2020/12/03 09:19:32;;;;;;;38.40;23.73;;;1.30;99.90;;;;;;5135559;27;20811;-82
2020/12/03 09:21:59;;;;;;;44.40;27.37;;;1.30;99.90;;;;;;5130557;27;20472;-82
2020/12/03 09:24:26;;;;;;;45.47;26.60;;;1.30;99.90;;;;;;5126490;27;20177;-82
2020/12/03 09:26:54;;;;;;;44.37;26.90;;;1.30;99.90;;;;;;5135582;27;20460;-82
2020/12/03 09:29:20;;;;;;;46.43;28.13;;;1.30;99.90;;;;;;5135611;27;20405;-83
2020/12/03 09:31:47;;;;;;;48.67;27.20;;;1.40;99.90;;;;;;5130838;27;20418;-83
2020/12/03 09:34:14;;;;;;;45.80;25.40;;;1.40;99.90;;;;;;5114651;28;20165;-82
2020/12/03 09:36:40;;;;;;;47.87;27.57;;;1.40;99.90;;;;;;5114998;28;20490;-82
2020/12/03 09:39:06;;;;;;;47.50;27.33;;;1.40;99.90;;;;;;5129417;27;20771;-83
2020/12/03 09:41:33;;;;;;;43.43;25.40;;;1.40;99.90;;;;;;5135327;27;20425;-82
2020/12/03 09:44:04;;;;;;;43.50;25.67;;;1.40;99.90;;;;;;5135083;27;20417;-82
2020/12/03 09:46:36;;;;;;;34.50;21.13;;;1.50;99.90;;;;;;5135236;27;20541;-82
2020/12/03 09:49:02;;;;;;;47.20;26.10;;;1.50;99.90;;;;;;5134914;27;20719;-82
2020/12/03 09:51:28;;;;;;;43.70;24.80;;;1.50;99.90;;;;;;5135065;27;20520;-82
2020/12/03 09:53:55;;;;;;;43.93;24.90;;;1.50;99.90;;;;;;5116646;27;20253;-82
2020/12/03 09:56:21;;;;;;;48.00;24.63;;;1.60;99.90;;;;;;5134985;27;20400;-82
2020/12/03 09:58:56;;;;;;;44.07;26.00;;;1.60;99.90;;;;;;5135064;27;20500;-82
2020/12/03 10:01:48;;;;;;;40.80;22.70;;;1.70;99.90;;;;;;5135102;27;20168;-82
2020/12/03 10:04:44;;;;;;;45.77;25.77;;;1.70;99.90;;;;;;5128597;27;20413;-83
2020/12/03 10:07:22;;;;;;;39.97;22.33;;;1.80;99.90;;;;;;5124411;27;20468;-83
2020/12/03 10:10:03;;;;;;;44.73;26.63;;;1.80;99.90;;;;;;5131695;27;20536;-83
2020/12/03 10:12:43;;;;;;;41.37;23.17;;;1.80;99.90;;;;;;5156014;22;20515;-82
2020/12/03 10:15:15;;;;;;;35.27;23.67;;;1.80;99.90;;;;;;5091426;28;20434;-83
2020/12/03 10:17:50;;;;;;;41.27;23.07;;;1.90;99.90;;;;;;5092458;28;20408;-85
2020/12/03 10:20:17;;;;;;;47.93;24.60;;;1.90;99.90;;;;;;5090326;28;20430;-85
2020/12/03 10:23:04;;;;;;;43.10;24.80;;;1.90;99.90;;;;;;5092892;28;20414;-86
2020/12/03 10:25:33;;;;;;;39.27;23.10;;;1.90;99.90;;;;;;5089320;28;20870;-85
2020/12/03 10:28:05;;;;;;;33.27;20.60;;;1.90;99.90;;;;;;5092527;28;20462;-90
2020/12/03 10:30:39;;;;;;;34.57;23.30;;;1.80;99.90;;;;;;5094966;28;20403;-92
2020/12/03 10:33:13;;;;;;;44.73;26.47;;;1.90;99.90;;;;;;5093243;28;20950;-91
2020/12/03 10:35:44;;;;;;;42.40;23.67;;;1.80;99.90;;;;;;5091609;28;20424;-85
2020/12/03 10:38:22;;;;;;;52.60;26.43;;;1.80;99.90;;;;;;5092911;28;20642;-87
2020/12/03 10:40:54;;;;;;;35.33;22.53;;;1.80;99.90;;;;;;5093026;28;20399;-87
2020/12/03 10:43:25;;;;;;;36.37;22.10;;;1.80;99.90;;;;;;5093783;28;20990;-87
2020/12/03 10:45:55;;;;;;;41.43;24.03;;;1.90;99.90;;;;;;5093790;28;20424;-87
2020/12/03 10:48:43;;;;;;;43.70;25.57;;;1.90;99.90;;;;;;5093328;28;20466;-87
2020/12/03 10:51:09;;;;;;;37.70;21.30;;;1.90;99.90;;;;;;5093668;28;20462;-87
2020/12/03 10:53:37;;;;;;;34.70;22.00;;;1.90;99.90;;;;;;5092564;28;20422;-86
2020/12/03 10:56:12;;;;;;;35.00;20.50;;;1.90;99.90;;;;;;5091933;28;20456;-84
2020/12/03 10:58:53;;;;;;;40.70;22.40;;;1.90;99.90;;;;;;5093156;28;20505;-84
2020/12/03 11:01:31;;;;;;;44.73;24.20;;;1.90;99.90;;;;;;5092873;28;20426;-88
2020/12/03 11:04:03;;;;;;;40.33;24.43;;;1.90;99.90;;;;;;5093030;28;20484;-85
2020/12/03 11:06:30;;;;;;;39.17;22.40;;;2.00;99.90;;;;;;5093014;28;20821;-85
2020/12/03 11:08:57;;;;;;;41.60;23.67;;;2.00;99.90;;;;;;5094523;28;20435;-89
2020/12/03 11:15:09;;;;;;;33.00;22.80;;;2.10;99.90;;;;;;5058553;28;20497;-80
2020/12/03 11:18:10;;;;;;;32.70;20.20;;;2.10;99.90;;;;;;5083400;28;20853;-84
2020/12/03 11:20:38;;;;;;;39.37;24.57;;;2.10;99.90;;;;;;5075403;28;20423;-85
2020/12/03 11:25:38;;;;;;;48.17;27.00;;;2.10;99.90;;;;;;5085232;28;20284;-87
2020/12/03 11:28:11;;;;;;;39.97;22.00;;;2.10;99.90;;;;;;5106130;28;20466;-84
2020/12/03 11:30:37;;;;;;;34.27;21.93;;;2.10;99.90;;;;;;5107861;28;20531;-89
2020/12/03 11:33:03;;;;;;;37.43;21.80;;;2.10;99.90;;;;;;5117539;28;21020;-88
2020/12/03 11:35:31;;;;;;;33.50;20.33;;;2.10;99.90;;;;;;5120175;28;20398;-90
2020/12/03 11:37:59;;;;;;;34.70;19.60;;;2.10;99.90;;;;;;5120358;28;20169;-89
2020/12/03 11:40:33;;;;;;;30.70;19.03;;;2.10;99.90;;;;;;5119866;28;20478;-91
2020/12/03 11:48:28;;;;;;;29.50;18.40;;;2.20;99.90;;;;;;5116432;27;20416;-83
2020/12/03 11:50:54;;;;;;;37.27;22.23;;;2.20;99.90;;;;;;5117034;28;20423;-82
2020/12/03 11:53:20;;;;;;;27.83;17.50;;;2.20;99.90;;;;;;5116958;28;20406;-82
2020/12/03 11:55:46;;;;;;;37.20;23.57;;;2.20;99.90;;;;;;5113557;28;20180;-82
2020/12/03 11:58:12;;;;;;;29.57;18.07;;;2.20;99.90;;;;;;5117351;27;20453;-83
2020/12/03 12:00:38;;;;;;;31.10;19.60;;;2.30;99.90;;;;;;5117379;28;20443;-83
2020/12/03 12:03:07;;;;;;;32.23;20.33;;;2.30;99.90;;;;;;5098300;28;20269;-83
2020/12/03 12:13:23;;;;;;;36.70;19.30;;;2.30;99.90;;;;;;5116549;28;20422;-82
2020/12/03 12:15:49;;;;;;;34.87;19.37;;;2.40;99.90;;;;;;5116541;28;20497;-83
2020/12/03 12:18:15;;;;;;;35.07;20.00;;;2.40;99.90;;;;;;5098018;28;20196;-83
2020/12/03 12:20:41;;;;;;;25.27;14.30;;;2.30;99.90;;;;;;5116088;28;20444;-84
2020/12/03 12:23:07;;;;;;;36.40;19.90;;;2.30;99.90;;;;;;5098343;28;20468;-84
2020/12/03 12:25:33;;;;;;;32.30;19.17;;;2.30;99.90;;;;;;5116290;28;20216;-84
2020/12/03 12:27:58;;;;;;;30.60;18.83;;;2.30;99.90;;;;;;5116189;28;20461;-83
2020/12/03 12:30:24;;;;;;;35.47;21.70;;;2.30;99.90;;;;;;5115883;28;20633;-84
2020/12/03 12:32:50;;;;;;;34.97;19.97;;;2.30;99.90;;;;;;5116151;28;20171;-83
2020/12/03 12:35:15;;;;;;;24.90;16.40;;;2.30;99.90;;;;;;5116234;28;20264;-83
2020/12/03 12:37:41;;;;;;;28.47;16.37;;;2.30;99.90;;;;;;5116444;28;20175;-83
2020/12/03 12:40:07;;;;;;;34.37;18.83;;;2.30;99.90;;;;;;5116188;28;20222;-83
2020/12/03 12:42:33;;;;;;;32.60;19.73;;;2.30;99.90;;;;;;5116191;28;20454;-84
2020/12/03 12:44:58;;;;;;;32.37;20.17;;;2.30;99.90;;;;;;5116040;28;20166;-84
2020/12/03 12:47:25;;;;;;;34.80;19.83;;;2.30;99.90;;;;;;5115534;28;20591;-84
2020/12/03 12:49:51;;;;;;;27.23;16.13;;;2.30;99.90;;;;;;5115521;28;20181;-83
2020/12/03 12:52:16;;;;;;;18.90;11.80;;;2.30;99.90;;;;;;5119353;28;20421;-83
2020/12/03 12:54:43;;;;;;;29.90;18.63;;;2.30;99.90;;;;;;5120132;28;20223;-84
2020/12/03 12:57:08;;;;;;;35.17;18.07;;;2.30;99.90;;;;;;5116232;28;20193;-84
2020/12/03 12:59:34;;;;;;;28.80;18.30;;;2.40;99.90;;;;;;5116088;28;20501;-83
2020/12/03 13:01:59;;;;;;;25.30;15.53;;;2.40;99.90;;;;;;5115916;28;20178;-83
2020/12/03 13:04:25;;;;;;;29.50;19.80;;;2.40;99.90;;;;;;5115746;28;20196;-85
2020/12/03 13:06:57;;;;;;;31.07;16.73;;;2.50;99.90;;;;;;5115744;28;20203;-85
2020/12/03 13:09:25;;;;;;;30.60;19.77;;;2.50;99.90;;;;;;5115580;28;20177;-84
2020/12/03 13:11:51;;;;;;;28.00;16.33;;;2.40;99.90;;;;;;5115437;28;20446;-83
2020/12/03 13:14:17;;;;;;;27.03;14.93;;;2.50;99.90;;;;;;5114309;28;20436;-83
2020/12/03 13:16:43;;;;;;;35.50;19.57;;;2.50;99.90;;;;;;5113841;28;20441;-82
2020/12/03 13:19:09;;;;;;;25.73;14.70;;;2.60;99.90;;;;;;5115581;27;20439;-84